<?xml version='1.0' encoding='UTF-8'?>
<gpx version="1.1" creator="https://www.komoot.de" xmlns="http://www.topografix.com/GPX/1/1" xmlns:xsi="http://www.w3.org/2001/XMLSchema-instance" xsi:schemaLocation="http://www.topografix.com/GPX/1/1 http://www.topografix.com/GPX/1/1/gpx.xsd">
  <metadata>
    <name>ADFC - Kurler Busch</name>
    <author>
      <link href="https://www.komoot.de">
        <text>komoot</text>
        <type>text/html</type>
      </link>
    </author>
  </metadata>
  <wpt lat="51.566178" lon="7.578823">
    <name>Pause und Einkehr bei Mowwe</name>
    <desc></desc>
    <sym>Flag, Blue</sym>
  </wpt>
  <trk>
    <name>ADFC - Kurler Busch</name>
    <type>touring_bicycle</type>
    <trkseg>
      <trkpt lat="51.616334" lon="7.643532">
        <ele>63.069791</ele>
        <time>2026-09-01T07:31:11.804Z</time>
      </trkpt>
      <trkpt lat="51.616301" lon="7.643330">
        <ele>63.069791</ele>
        <time>2026-09-01T07:31:14.444Z</time>
      </trkpt>
      <trkpt lat="51.616261" lon="7.643098">
        <ele>63.069791</ele>
        <time>2026-09-01T07:31:17.416Z</time>
      </trkpt>
      <trkpt lat="51.616197" lon="7.642729">
        <ele>63.069791</ele>
        <time>2026-09-01T07:31:22.058Z</time>
      </trkpt>
      <trkpt lat="51.616007" lon="7.642862">
        <ele>63.069791</ele>
        <time>2026-09-01T07:31:26.022Z</time>
      </trkpt>
      <trkpt lat="51.615928" lon="7.642927">
        <ele>63.069791</ele>
        <time>2026-09-01T07:31:27.708Z</time>
      </trkpt>
      <trkpt lat="51.615863" lon="7.642834">
        <ele>63.068398</ele>
        <time>2026-09-01T07:31:29.349Z</time>
      </trkpt>
      <trkpt lat="51.615772" lon="7.642857">
        <ele>62.854955</ele>
        <time>2026-09-01T07:31:31.068Z</time>
      </trkpt>
      <trkpt lat="51.615728" lon="7.642979">
        <ele>62.651960</ele>
        <time>2026-09-01T07:31:32.705Z</time>
      </trkpt>
      <trkpt lat="51.615734" lon="7.643051">
        <ele>62.547438</ele>
        <time>2026-09-01T07:31:33.548Z</time>
      </trkpt>
      <trkpt lat="51.615321" lon="7.643326">
        <ele>61.511880</ele>
        <time>2026-09-01T07:31:41.463Z</time>
      </trkpt>
      <trkpt lat="51.614632" lon="7.643781">
        <ele>59.786344</ele>
        <time>2026-09-01T07:31:54.034Z</time>
      </trkpt>
      <trkpt lat="51.614388" lon="7.643955">
        <ele>59.168006</ele>
        <time>2026-09-01T07:31:58.458Z</time>
      </trkpt>
      <trkpt lat="51.613665" lon="7.644431">
        <ele>56.862926</ele>
        <time>2026-09-01T07:32:11.132Z</time>
      </trkpt>
      <trkpt lat="51.613026" lon="7.644864">
        <ele>54.741303</ele>
        <time>2026-09-01T07:32:22.353Z</time>
      </trkpt>
      <trkpt lat="51.612386" lon="7.645313">
        <ele>52.972149</ele>
        <time>2026-09-01T07:32:34.014Z</time>
      </trkpt>
      <trkpt lat="51.612361" lon="7.645259">
        <ele>52.903449</ele>
        <time>2026-09-01T07:32:34.725Z</time>
      </trkpt>
      <trkpt lat="51.612301" lon="7.645230">
        <ele>52.800556</ele>
        <time>2026-09-01T07:32:35.788Z</time>
      </trkpt>
      <trkpt lat="51.612235" lon="7.645293">
        <ele>52.674538</ele>
        <time>2026-09-01T07:32:37.115Z</time>
      </trkpt>
      <trkpt lat="51.612222" lon="7.645374">
        <ele>52.589207</ele>
        <time>2026-09-01T07:32:38.024Z</time>
      </trkpt>
      <trkpt lat="51.611982" lon="7.645334">
        <ele>52.192902</ele>
        <time>2026-09-01T07:32:42.303Z</time>
      </trkpt>
      <trkpt lat="51.611918" lon="7.645336">
        <ele>52.087762</ele>
        <time>2026-09-01T07:32:43.469Z</time>
      </trkpt>
      <trkpt lat="51.611668" lon="7.645342">
        <ele>51.677093</ele>
        <time>2026-09-01T07:32:48.082Z</time>
      </trkpt>
      <trkpt lat="51.611330" lon="7.645338">
        <ele>51.121914</ele>
        <time>2026-09-01T07:32:54.483Z</time>
      </trkpt>
      <trkpt lat="51.611287" lon="7.645209">
        <ele>50.972579</ele>
        <time>2026-09-01T07:32:56.871Z</time>
      </trkpt>
      <trkpt lat="51.611038" lon="7.644500">
        <ele>50.377351</ele>
        <time>2026-09-01T07:33:06.900Z</time>
      </trkpt>
      <trkpt lat="51.610689" lon="7.643804">
        <ele>50.177704</ele>
        <time>2026-09-01T07:33:18.310Z</time>
      </trkpt>
      <trkpt lat="51.610301" lon="7.642520">
        <ele>49.859019</ele>
        <time>2026-09-01T07:33:37.208Z</time>
      </trkpt>
      <trkpt lat="51.609628" lon="7.640633">
        <ele>50.220940</ele>
        <time>2026-09-01T07:34:07.936Z</time>
      </trkpt>
      <trkpt lat="51.609014" lon="7.639369">
        <ele>50.839075</ele>
        <time>2026-09-01T07:34:33.227Z</time>
      </trkpt>
      <trkpt lat="51.608553" lon="7.637977">
        <ele>51.867012</ele>
        <time>2026-09-01T07:34:59.701Z</time>
      </trkpt>
      <trkpt lat="51.608507" lon="7.637823">
        <ele>51.978363</ele>
        <time>2026-09-01T07:35:03.309Z</time>
      </trkpt>
      <trkpt lat="51.608419" lon="7.637881">
        <ele>52.078130</ele>
        <time>2026-09-01T07:35:06.569Z</time>
      </trkpt>
      <trkpt lat="51.608405" lon="7.637802">
        <ele>52.131662</ele>
        <time>2026-09-01T07:35:08.305Z</time>
      </trkpt>
      <trkpt lat="51.608387" lon="7.637719">
        <ele>52.188948</ele>
        <time>2026-09-01T07:35:10.184Z</time>
      </trkpt>
      <trkpt lat="51.608455" lon="7.637679">
        <ele>52.264907</ele>
        <time>2026-09-01T07:35:12.594Z</time>
      </trkpt>
      <trkpt lat="51.608416" lon="7.637565">
        <ele>52.348950</ele>
        <time>2026-09-01T07:35:15.338Z</time>
      </trkpt>
      <trkpt lat="51.608288" lon="7.637240">
        <ele>52.589365</ele>
        <time>2026-09-01T07:35:21.634Z</time>
      </trkpt>
      <trkpt lat="51.607576" lon="7.635812">
        <ele>53.733384</ele>
        <time>2026-09-01T07:35:51.334Z</time>
      </trkpt>
      <trkpt lat="51.607258" lon="7.634866">
        <ele>54.385933</ele>
        <time>2026-09-01T07:36:09.012Z</time>
      </trkpt>
      <trkpt lat="51.607077" lon="7.634247">
        <ele>54.781969</ele>
        <time>2026-09-01T07:36:20.088Z</time>
      </trkpt>
      <trkpt lat="51.606957" lon="7.633941">
        <ele>54.991454</ele>
        <time>2026-09-01T07:36:25.920Z</time>
      </trkpt>
      <trkpt lat="51.606903" lon="7.633805">
        <ele>55.084892</ele>
        <time>2026-09-01T07:36:29.211Z</time>
      </trkpt>
      <trkpt lat="51.606869" lon="7.633623">
        <ele>55.194906</ele>
        <time>2026-09-01T07:36:33.081Z</time>
      </trkpt>
      <trkpt lat="51.606846" lon="7.632693">
        <ele>55.733666</ele>
        <time>2026-09-01T07:36:47.702Z</time>
      </trkpt>
      <trkpt lat="51.606861" lon="7.631272">
        <ele>56.413505</ele>
        <time>2026-09-01T07:37:10.338Z</time>
      </trkpt>
      <trkpt lat="51.606864" lon="7.630088">
        <ele>56.966488</ele>
        <time>2026-09-01T07:37:29.277Z</time>
      </trkpt>
      <trkpt lat="51.606863" lon="7.629879">
        <ele>57.064102</ele>
        <time>2026-09-01T07:37:33.445Z</time>
      </trkpt>
      <trkpt lat="51.606706" lon="7.629874">
        <ele>57.170301</ele>
        <time>2026-09-01T07:37:37.281Z</time>
      </trkpt>
      <trkpt lat="51.606726" lon="7.629619">
        <ele>57.177845</ele>
        <time>2026-09-01T07:37:42.281Z</time>
      </trkpt>
      <trkpt lat="51.606819" lon="7.628516">
        <ele>57.210516</ele>
        <time>2026-09-01T07:37:57.877Z</time>
      </trkpt>
      <trkpt lat="51.606855" lon="7.628097">
        <ele>57.222931</ele>
        <time>2026-09-01T07:38:03.367Z</time>
      </trkpt>
      <trkpt lat="51.606981" lon="7.626753">
        <ele>57.309245</ele>
        <time>2026-09-01T07:38:21.558Z</time>
      </trkpt>
      <trkpt lat="51.607005" lon="7.626491">
        <ele>57.360394</ele>
        <time>2026-09-01T07:38:25.243Z</time>
      </trkpt>
      <trkpt lat="51.607060" lon="7.626070">
        <ele>57.443485</ele>
        <time>2026-09-01T07:38:31.441Z</time>
      </trkpt>
      <trkpt lat="51.607235" lon="7.623962">
        <ele>57.842472</ele>
        <time>2026-09-01T07:39:03.544Z</time>
      </trkpt>
      <trkpt lat="51.607476" lon="7.622496">
        <ele>58.050015</ele>
        <time>2026-09-01T07:39:26.192Z</time>
      </trkpt>
      <trkpt lat="51.607509" lon="7.622272">
        <ele>58.081522</ele>
        <time>2026-09-01T07:39:30.470Z</time>
      </trkpt>
      <trkpt lat="51.607568" lon="7.622039">
        <ele>58.115959</ele>
        <time>2026-09-01T07:39:35.108Z</time>
      </trkpt>
      <trkpt lat="51.607661" lon="7.621716">
        <ele>58.164683</ele>
        <time>2026-09-01T07:39:40.015Z</time>
      </trkpt>
      <trkpt lat="51.608703" lon="7.620264">
        <ele>57.465226</ele>
        <time>2026-09-01T07:40:08.274Z</time>
      </trkpt>
      <trkpt lat="51.608762" lon="7.620108">
        <ele>57.393084</ele>
        <time>2026-09-01T07:40:10.489Z</time>
      </trkpt>
      <trkpt lat="51.608800" lon="7.619776">
        <ele>57.259746</ele>
        <time>2026-09-01T07:40:14.555Z</time>
      </trkpt>
      <trkpt lat="51.608787" lon="7.618717">
        <ele>56.784099</ele>
        <time>2026-09-01T07:40:27.250Z</time>
      </trkpt>
      <trkpt lat="51.608775" lon="7.618494">
        <ele>56.673169</ele>
        <time>2026-09-01T07:40:30.865Z</time>
      </trkpt>
      <trkpt lat="51.608837" lon="7.618485">
        <ele>56.623491</ele>
        <time>2026-09-01T07:40:32.061Z</time>
      </trkpt>
      <trkpt lat="51.608838" lon="7.618251">
        <ele>56.507521</ele>
        <time>2026-09-01T07:40:35.878Z</time>
      </trkpt>
      <trkpt lat="51.608839" lon="7.618006">
        <ele>56.386100</ele>
        <time>2026-09-01T07:40:38.817Z</time>
      </trkpt>
      <trkpt lat="51.608713" lon="7.616197">
        <ele>55.611020</ele>
        <time>2026-09-01T07:41:01.483Z</time>
      </trkpt>
      <trkpt lat="51.608716" lon="7.615556">
        <ele>55.567942</ele>
        <time>2026-09-01T07:41:10.052Z</time>
      </trkpt>
      <trkpt lat="51.608825" lon="7.614685">
        <ele>55.508231</ele>
        <time>2026-09-01T07:41:22.422Z</time>
      </trkpt>
      <trkpt lat="51.608961" lon="7.612975">
        <ele>55.254013</ele>
        <time>2026-09-01T07:41:46.533Z</time>
      </trkpt>
      <trkpt lat="51.609073" lon="7.611947">
        <ele>54.963015</ele>
        <time>2026-09-01T07:42:00.151Z</time>
      </trkpt>
      <trkpt lat="51.609468" lon="7.609144">
        <ele>53.781010</ele>
        <time>2026-09-01T07:42:35.195Z</time>
      </trkpt>
      <trkpt lat="51.609496" lon="7.608621">
        <ele>53.515404</ele>
        <time>2026-09-01T07:42:41.609Z</time>
      </trkpt>
      <trkpt lat="51.609607" lon="7.608639">
        <ele>53.424510</ele>
        <time>2026-09-01T07:42:44.055Z</time>
      </trkpt>
      <trkpt lat="51.609758" lon="7.608674">
        <ele>53.300214</ele>
        <time>2026-09-01T07:42:47.063Z</time>
      </trkpt>
      <trkpt lat="51.609878" lon="7.608701">
        <ele>53.201494</ele>
        <time>2026-09-01T07:42:49.466Z</time>
      </trkpt>
      <trkpt lat="51.610003" lon="7.608726">
        <ele>53.101928</ele>
        <time>2026-09-01T07:42:51.960Z</time>
      </trkpt>
      <trkpt lat="51.611036" lon="7.608822">
        <ele>52.298894</ele>
        <time>2026-09-01T07:43:28.666Z</time>
      </trkpt>
      <trkpt lat="51.611062" lon="7.608357">
        <ele>52.073881</ele>
        <time>2026-09-01T07:43:38.676Z</time>
      </trkpt>
      <trkpt lat="51.611117" lon="7.607561">
        <ele>51.593759</ele>
        <time>2026-09-01T07:43:55.363Z</time>
      </trkpt>
      <trkpt lat="51.611157" lon="7.605141">
        <ele>49.046863</ele>
        <time>2026-09-01T07:44:21.993Z</time>
      </trkpt>
      <trkpt lat="51.611171" lon="7.604266">
        <ele>48.405126</ele>
        <time>2026-09-01T07:44:31.802Z</time>
      </trkpt>
      <trkpt lat="51.611186" lon="7.602954">
        <ele>47.673022</ele>
        <time>2026-09-01T07:44:47.465Z</time>
      </trkpt>
      <trkpt lat="51.611205" lon="7.602755">
        <ele>47.560693</ele>
        <time>2026-09-01T07:44:50.015Z</time>
      </trkpt>
      <trkpt lat="51.611304" lon="7.602400">
        <ele>47.343581</ele>
        <time>2026-09-01T07:44:55.106Z</time>
      </trkpt>
      <trkpt lat="51.611067" lon="7.602237">
        <ele>47.112049</ele>
        <time>2026-09-01T07:45:00.631Z</time>
      </trkpt>
      <trkpt lat="51.611150" lon="7.601987">
        <ele>47.261878</ele>
        <time>2026-09-01T07:45:07.041Z</time>
      </trkpt>
      <trkpt lat="51.611191" lon="7.601941">
        <ele>47.308889</ele>
        <time>2026-09-01T07:45:08.871Z</time>
      </trkpt>
      <trkpt lat="51.611211" lon="7.601839">
        <ele>47.371379</ele>
        <time>2026-09-01T07:45:10.332Z</time>
      </trkpt>
      <trkpt lat="51.611216" lon="7.601655">
        <ele>47.478978</ele>
        <time>2026-09-01T07:45:12.851Z</time>
      </trkpt>
      <trkpt lat="51.611219" lon="7.601535">
        <ele>47.549141</ele>
        <time>2026-09-01T07:45:14.514Z</time>
      </trkpt>
      <trkpt lat="51.611224" lon="7.601451">
        <ele>47.598440</ele>
        <time>2026-09-01T07:45:15.665Z</time>
      </trkpt>
      <trkpt lat="51.611238" lon="7.601258">
        <ele>47.711961</ele>
        <time>2026-09-01T07:45:18.527Z</time>
      </trkpt>
      <trkpt lat="51.611246" lon="7.599722">
        <ele>48.609350</ele>
        <time>2026-09-01T07:45:44.877Z</time>
      </trkpt>
      <trkpt lat="51.611250" lon="7.599049">
        <ele>49.163952</ele>
        <time>2026-09-01T07:45:57.452Z</time>
      </trkpt>
      <trkpt lat="51.611252" lon="7.598704">
        <ele>49.523379</ele>
        <time>2026-09-01T07:46:04.073Z</time>
      </trkpt>
      <trkpt lat="51.611257" lon="7.597484">
        <ele>50.794369</ele>
        <time>2026-09-01T07:46:27.559Z</time>
      </trkpt>
      <trkpt lat="51.611257" lon="7.597344">
        <ele>50.940217</ele>
        <time>2026-09-01T07:46:30.045Z</time>
      </trkpt>
      <trkpt lat="51.611259" lon="7.596846">
        <ele>51.459030</ele>
        <time>2026-09-01T07:46:38.466Z</time>
      </trkpt>
      <trkpt lat="51.611262" lon="7.596026">
        <ele>51.945473</ele>
        <time>2026-09-01T07:46:51.363Z</time>
      </trkpt>
      <trkpt lat="51.611261" lon="7.595826">
        <ele>52.000386</ele>
        <time>2026-09-01T07:46:54.400Z</time>
      </trkpt>
      <trkpt lat="51.611260" lon="7.595397">
        <ele>52.118171</ele>
        <time>2026-09-01T07:47:00.813Z</time>
      </trkpt>
      <trkpt lat="51.611279" lon="7.595304">
        <ele>52.145051</ele>
        <time>2026-09-01T07:47:02.256Z</time>
      </trkpt>
      <trkpt lat="51.611371" lon="7.595134">
        <ele>52.206962</ele>
        <time>2026-09-01T07:47:05.548Z</time>
      </trkpt>
      <trkpt lat="51.611266" lon="7.594893">
        <ele>52.287790</ele>
        <time>2026-09-01T07:47:09.799Z</time>
      </trkpt>
      <trkpt lat="51.611195" lon="7.594601">
        <ele>52.373886</ele>
        <time>2026-09-01T07:47:14.384Z</time>
      </trkpt>
      <trkpt lat="51.611004" lon="7.593318">
        <ele>52.547104</ele>
        <time>2026-09-01T07:47:33.414Z</time>
      </trkpt>
      <trkpt lat="51.610912" lon="7.592959">
        <ele>52.495108</ele>
        <time>2026-09-01T07:47:38.843Z</time>
      </trkpt>
      <trkpt lat="51.610821" lon="7.592684">
        <ele>52.453388</ele>
        <time>2026-09-01T07:47:43.108Z</time>
      </trkpt>
      <trkpt lat="51.610656" lon="7.592314">
        <ele>52.392401</ele>
        <time>2026-09-01T07:47:49.327Z</time>
      </trkpt>
      <trkpt lat="51.610147" lon="7.591356">
        <ele>52.223599</ele>
        <time>2026-09-01T07:48:05.621Z</time>
      </trkpt>
      <trkpt lat="51.609899" lon="7.590775">
        <ele>51.805154</ele>
        <time>2026-09-01T07:48:13.999Z</time>
      </trkpt>
      <trkpt lat="51.609726" lon="7.590285">
        <ele>51.464087</ele>
        <time>2026-09-01T07:48:20.661Z</time>
      </trkpt>
      <trkpt lat="51.609640" lon="7.590145">
        <ele>51.344930</ele>
        <time>2026-09-01T07:48:23.015Z</time>
      </trkpt>
      <trkpt lat="51.609440" lon="7.589984">
        <ele>51.127060</ele>
        <time>2026-09-01T07:48:27.358Z</time>
      </trkpt>
      <trkpt lat="51.609110" lon="7.589950">
        <ele>50.804859</ele>
        <time>2026-09-01T07:48:33.870Z</time>
      </trkpt>
      <trkpt lat="51.609108" lon="7.589784">
        <ele>50.704392</ele>
        <time>2026-09-01T07:48:35.877Z</time>
      </trkpt>
      <trkpt lat="51.609039" lon="7.589756">
        <ele>50.635058</ele>
        <time>2026-09-01T07:48:37.217Z</time>
      </trkpt>
      <trkpt lat="51.609035" lon="7.589483">
        <ele>50.469816</ele>
        <time>2026-09-01T07:48:40.414Z</time>
      </trkpt>
      <trkpt lat="51.608912" lon="7.589512">
        <ele>50.365087</ele>
        <time>2026-09-01T07:48:42.720Z</time>
      </trkpt>
      <trkpt lat="51.609035" lon="7.589483">
        <ele>50.260506</ele>
        <time>2026-09-01T07:48:45.038Z</time>
      </trkpt>
      <trkpt lat="51.609039" lon="7.589756">
        <ele>50.117835</ele>
        <time>2026-09-01T07:48:48.210Z</time>
      </trkpt>
      <trkpt lat="51.609108" lon="7.589784">
        <ele>50.057972</ele>
        <time>2026-09-01T07:48:49.559Z</time>
      </trkpt>
      <trkpt lat="51.609110" lon="7.589950">
        <ele>49.971228</ele>
        <time>2026-09-01T07:48:51.489Z</time>
      </trkpt>
      <trkpt lat="51.608909" lon="7.589957">
        <ele>49.802091</ele>
        <time>2026-09-01T07:48:55.355Z</time>
      </trkpt>
      <trkpt lat="51.608568" lon="7.589953">
        <ele>49.515206</ele>
        <time>2026-09-01T07:49:01.972Z</time>
      </trkpt>
      <trkpt lat="51.608038" lon="7.589892">
        <ele>49.068189</ele>
        <time>2026-09-01T07:49:12.581Z</time>
      </trkpt>
      <trkpt lat="51.608081" lon="7.589650">
        <ele>48.979378</ele>
        <time>2026-09-01T07:49:16.871Z</time>
      </trkpt>
      <trkpt lat="51.608101" lon="7.589438">
        <ele>49.120672</ele>
        <time>2026-09-01T07:49:19.658Z</time>
      </trkpt>
      <trkpt lat="51.607928" lon="7.588808">
        <ele>49.574564</ele>
        <time>2026-09-01T07:49:29.551Z</time>
      </trkpt>
      <trkpt lat="51.607091" lon="7.586599">
        <ele>51.469214</ele>
        <time>2026-09-01T07:50:16.140Z</time>
      </trkpt>
      <trkpt lat="51.606731" lon="7.585924">
        <ele>52.322810</ele>
        <time>2026-09-01T07:50:32.924Z</time>
      </trkpt>
      <trkpt lat="51.606497" lon="7.585910">
        <ele>52.684534</ele>
        <time>2026-09-01T07:50:39.743Z</time>
      </trkpt>
      <trkpt lat="51.606368" lon="7.585880">
        <ele>52.885876</ele>
        <time>2026-09-01T07:50:43.443Z</time>
      </trkpt>
      <trkpt lat="51.606282" lon="7.585822">
        <ele>53.029909</ele>
        <time>2026-09-01T07:50:46.066Z</time>
      </trkpt>
      <trkpt lat="51.606012" lon="7.585408">
        <ele>53.605861</ele>
        <time>2026-09-01T07:50:56.107Z</time>
      </trkpt>
      <trkpt lat="51.605945" lon="7.585083">
        <ele>53.719228</ele>
        <time>2026-09-01T07:51:01.435Z</time>
      </trkpt>
      <trkpt lat="51.605970" lon="7.584780">
        <ele>53.796382</ele>
        <time>2026-09-01T07:51:05.963Z</time>
      </trkpt>
      <trkpt lat="51.606106" lon="7.584036">
        <ele>53.992145</ele>
        <time>2026-09-01T07:51:17.143Z</time>
      </trkpt>
      <trkpt lat="51.606102" lon="7.583549">
        <ele>54.115082</ele>
        <time>2026-09-01T07:51:24.138Z</time>
      </trkpt>
      <trkpt lat="51.606099" lon="7.583296">
        <ele>54.178955</ele>
        <time>2026-09-01T07:51:28.870Z</time>
      </trkpt>
      <trkpt lat="51.606049" lon="7.583203">
        <ele>54.210003</ele>
        <time>2026-09-01T07:51:30.658Z</time>
      </trkpt>
      <trkpt lat="51.606023" lon="7.583238">
        <ele>54.223777</ele>
        <time>2026-09-01T07:51:31.454Z</time>
      </trkpt>
      <trkpt lat="51.605962" lon="7.583031">
        <ele>54.281610</ele>
        <time>2026-09-01T07:51:35.753Z</time>
      </trkpt>
      <trkpt lat="51.605833" lon="7.582669">
        <ele>54.360126</ele>
        <time>2026-09-01T07:51:41.788Z</time>
      </trkpt>
      <trkpt lat="51.605627" lon="7.582258">
        <ele>54.229246</ele>
        <time>2026-09-01T07:51:49.327Z</time>
      </trkpt>
      <trkpt lat="51.605433" lon="7.581999">
        <ele>54.128691</ele>
        <time>2026-09-01T07:51:54.973Z</time>
      </trkpt>
      <trkpt lat="51.605266" lon="7.581910">
        <ele>54.058501</ele>
        <time>2026-09-01T07:51:58.834Z</time>
      </trkpt>
      <trkpt lat="51.604747" lon="7.581819">
        <ele>53.850192</ele>
        <time>2026-09-01T07:52:09.597Z</time>
      </trkpt>
      <trkpt lat="51.604715" lon="7.581783">
        <ele>53.834616</ele>
        <time>2026-09-01T07:52:10.389Z</time>
      </trkpt>
      <trkpt lat="51.604701" lon="7.581611">
        <ele>53.791627</ele>
        <time>2026-09-01T07:52:12.518Z</time>
      </trkpt>
      <trkpt lat="51.604659" lon="7.581496">
        <ele>53.758566</ele>
        <time>2026-09-01T07:52:14.148Z</time>
      </trkpt>
      <trkpt lat="51.604616" lon="7.581463">
        <ele>53.739559</ele>
        <time>2026-09-01T07:52:15.073Z</time>
      </trkpt>
      <trkpt lat="51.604292" lon="7.581406">
        <ele>53.540331</ele>
        <time>2026-09-01T07:52:21.320Z</time>
      </trkpt>
      <trkpt lat="51.604147" lon="7.581314">
        <ele>53.385097</ele>
        <time>2026-09-01T07:52:24.243Z</time>
      </trkpt>
      <trkpt lat="51.604018" lon="7.581107">
        <ele>53.203694</ele>
        <time>2026-09-01T07:52:27.612Z</time>
      </trkpt>
      <trkpt lat="51.603976" lon="7.580842">
        <ele>53.034504</ele>
        <time>2026-09-01T07:52:30.726Z</time>
      </trkpt>
      <trkpt lat="51.603414" lon="7.579951">
        <ele>52.248908</ele>
        <time>2026-09-01T07:52:47.582Z</time>
      </trkpt>
      <trkpt lat="51.603307" lon="7.579734">
        <ele>52.077503</ele>
        <time>2026-09-01T07:52:52.178Z</time>
      </trkpt>
      <trkpt lat="51.603192" lon="7.579922">
        <ele>51.914265</ele>
        <time>2026-09-01T07:52:56.580Z</time>
      </trkpt>
      <trkpt lat="51.603143" lon="7.580007">
        <ele>51.870790</ele>
        <time>2026-09-01T07:52:58.104Z</time>
      </trkpt>
      <trkpt lat="51.603070" lon="7.580191">
        <ele>51.911475</ele>
        <time>2026-09-01T07:53:01.798Z</time>
      </trkpt>
      <trkpt lat="51.602771" lon="7.581183">
        <ele>52.116945</ele>
        <time>2026-09-01T07:53:18.480Z</time>
      </trkpt>
      <trkpt lat="51.602573" lon="7.581583">
        <ele>52.212259</ele>
        <time>2026-09-01T07:53:27.364Z</time>
      </trkpt>
      <trkpt lat="51.602273" lon="7.581994">
        <ele>52.330441</ele>
        <time>2026-09-01T07:53:38.510Z</time>
      </trkpt>
      <trkpt lat="51.601902" lon="7.582315">
        <ele>52.484673</ele>
        <time>2026-09-01T07:53:50.459Z</time>
      </trkpt>
      <trkpt lat="51.601650" lon="7.582457">
        <ele>52.606952</ele>
        <time>2026-09-01T07:53:57.929Z</time>
      </trkpt>
      <trkpt lat="51.601414" lon="7.582536">
        <ele>52.717350</ele>
        <time>2026-09-01T07:54:04.659Z</time>
      </trkpt>
      <trkpt lat="51.601235" lon="7.582527">
        <ele>52.799371</ele>
        <time>2026-09-01T07:54:09.589Z</time>
      </trkpt>
      <trkpt lat="51.600698" lon="7.582347">
        <ele>53.050588</ele>
        <time>2026-09-01T07:54:23.980Z</time>
      </trkpt>
      <trkpt lat="51.597693" lon="7.581918">
        <ele>53.176234</ele>
        <time>2026-09-01T07:55:37.396Z</time>
      </trkpt>
      <trkpt lat="51.597493" lon="7.581917">
        <ele>53.198702</ele>
        <time>2026-09-01T07:55:42.346Z</time>
      </trkpt>
      <trkpt lat="51.597050" lon="7.582011">
        <ele>53.248897</ele>
        <time>2026-09-01T07:55:53.581Z</time>
      </trkpt>
      <trkpt lat="51.596745" lon="7.582174">
        <ele>53.286145</ele>
        <time>2026-09-01T07:56:01.938Z</time>
      </trkpt>
      <trkpt lat="51.596411" lon="7.582480">
        <ele>53.722711</ele>
        <time>2026-09-01T07:56:12.292Z</time>
      </trkpt>
      <trkpt lat="51.596218" lon="7.582708">
        <ele>53.994661</ele>
        <time>2026-09-01T07:56:19.012Z</time>
      </trkpt>
      <trkpt lat="51.595967" lon="7.583118">
        <ele>54.400880</ele>
        <time>2026-09-01T07:56:29.345Z</time>
      </trkpt>
      <trkpt lat="51.595700" lon="7.583821">
        <ele>54.982353</ele>
        <time>2026-09-01T07:56:45.127Z</time>
      </trkpt>
      <trkpt lat="51.595651" lon="7.584009">
        <ele>55.126227</ele>
        <time>2026-09-01T07:56:49.146Z</time>
      </trkpt>
      <trkpt lat="51.595633" lon="7.584080">
        <ele>55.180343</ele>
        <time>2026-09-01T07:56:50.690Z</time>
      </trkpt>
      <trkpt lat="51.595579" lon="7.584494">
        <ele>55.462673</ele>
        <time>2026-09-01T07:56:59.068Z</time>
      </trkpt>
      <trkpt lat="51.595582" lon="7.584715">
        <ele>55.601907</ele>
        <time>2026-09-01T07:57:04.047Z</time>
      </trkpt>
      <trkpt lat="51.595510" lon="7.584725">
        <ele>55.675182</ele>
        <time>2026-09-01T07:57:06.180Z</time>
      </trkpt>
      <trkpt lat="51.595370" lon="7.584761">
        <ele>55.818934</ele>
        <time>2026-09-01T07:57:10.325Z</time>
      </trkpt>
      <trkpt lat="51.595288" lon="7.584781">
        <ele>55.903026</ele>
        <time>2026-09-01T07:57:12.778Z</time>
      </trkpt>
      <trkpt lat="51.595089" lon="7.584836">
        <ele>56.107753</ele>
        <time>2026-09-01T07:57:18.466Z</time>
      </trkpt>
      <trkpt lat="51.594858" lon="7.584852">
        <ele>56.342190</ele>
        <time>2026-09-01T07:57:24.739Z</time>
      </trkpt>
      <trkpt lat="51.594636" lon="7.584789">
        <ele>56.570756</ele>
        <time>2026-09-01T07:57:30.540Z</time>
      </trkpt>
      <trkpt lat="51.594281" lon="7.584620">
        <ele>56.946117</ele>
        <time>2026-09-01T07:57:39.618Z</time>
      </trkpt>
      <trkpt lat="51.593654" lon="7.584323">
        <ele>57.056892</ele>
        <time>2026-09-01T07:57:53.859Z</time>
      </trkpt>
      <trkpt lat="51.594047" lon="7.583187">
        <ele>56.886707</ele>
        <time>2026-09-01T07:58:10.756Z</time>
      </trkpt>
      <trkpt lat="51.594207" lon="7.582123">
        <ele>56.756829</ele>
        <time>2026-09-01T07:58:25.206Z</time>
      </trkpt>
      <trkpt lat="51.592504" lon="7.581374">
        <ele>56.606076</ele>
        <time>2026-09-01T07:59:03.467Z</time>
      </trkpt>
      <trkpt lat="51.592194" lon="7.581231">
        <ele>56.726351</ele>
        <time>2026-09-01T07:59:10.808Z</time>
      </trkpt>
      <trkpt lat="51.590853" lon="7.580440">
        <ele>57.241680</ele>
        <time>2026-09-01T07:59:45.828Z</time>
      </trkpt>
      <trkpt lat="51.590172" lon="7.580057">
        <ele>57.297555</ele>
        <time>2026-09-01T08:00:03.134Z</time>
      </trkpt>
      <trkpt lat="51.589756" lon="7.580011">
        <ele>57.329853</ele>
        <time>2026-09-01T08:00:12.352Z</time>
      </trkpt>
      <trkpt lat="51.589399" lon="7.580035">
        <ele>57.357529</ele>
        <time>2026-09-01T08:00:20.082Z</time>
      </trkpt>
      <trkpt lat="51.588883" lon="7.580160">
        <ele>57.240672</ele>
        <time>2026-09-01T08:00:30.789Z</time>
      </trkpt>
      <trkpt lat="51.588487" lon="7.580264">
        <ele>57.044381</ele>
        <time>2026-09-01T08:00:38.761Z</time>
      </trkpt>
      <trkpt lat="51.586292" lon="7.580843">
        <ele>56.743281</ele>
        <time>2026-09-01T08:01:24.890Z</time>
      </trkpt>
      <trkpt lat="51.582617" lon="7.581716">
        <ele>60.844688</ele>
        <time>2026-09-01T08:03:06.121Z</time>
      </trkpt>
      <trkpt lat="51.581090" lon="7.582107">
        <ele>63.665160</ele>
        <time>2026-09-01T08:03:50.386Z</time>
      </trkpt>
      <trkpt lat="51.578102" lon="7.582856">
        <ele>70.689595</ele>
        <time>2026-09-01T08:05:29.847Z</time>
      </trkpt>
      <trkpt lat="51.578018" lon="7.582877">
        <ele>70.823507</ele>
        <time>2026-09-01T08:05:32.215Z</time>
      </trkpt>
      <trkpt lat="51.578050" lon="7.583396">
        <ele>71.334084</ele>
        <time>2026-09-01T08:05:41.277Z</time>
      </trkpt>
      <trkpt lat="51.578099" lon="7.584574">
        <ele>72.489882</ele>
        <time>2026-09-01T08:06:01.087Z</time>
      </trkpt>
      <trkpt lat="51.578001" lon="7.584499">
        <ele>72.660831</ele>
        <time>2026-09-01T08:06:03.904Z</time>
      </trkpt>
      <trkpt lat="51.577775" lon="7.584236">
        <ele>72.966338</ele>
        <time>2026-09-01T08:06:11.004Z</time>
      </trkpt>
      <trkpt lat="51.577484" lon="7.583802">
        <ele>73.176043</ele>
        <time>2026-09-01T08:06:21.466Z</time>
      </trkpt>
      <trkpt lat="51.577338" lon="7.583488">
        <ele>73.304852</ele>
        <time>2026-09-01T08:06:28.312Z</time>
      </trkpt>
      <trkpt lat="51.577303" lon="7.583391">
        <ele>73.341694</ele>
        <time>2026-09-01T08:06:30.259Z</time>
      </trkpt>
      <trkpt lat="51.576893" lon="7.582314">
        <ele>73.756544</ele>
        <time>2026-09-01T08:06:49.454Z</time>
      </trkpt>
      <trkpt lat="51.576732" lon="7.582022">
        <ele>73.786826</ele>
        <time>2026-09-01T08:06:54.182Z</time>
      </trkpt>
      <trkpt lat="51.576583" lon="7.581838">
        <ele>73.611201</ele>
        <time>2026-09-01T08:06:57.777Z</time>
      </trkpt>
      <trkpt lat="51.576408" lon="7.581581">
        <ele>73.389659</ele>
        <time>2026-09-01T08:07:02.209Z</time>
      </trkpt>
      <trkpt lat="51.576053" lon="7.580763">
        <ele>72.809876</ele>
        <time>2026-09-01T08:07:13.453Z</time>
      </trkpt>
      <trkpt lat="51.572965" lon="7.582863">
        <ele>71.841523</ele>
        <time>2026-09-01T08:08:22.244Z</time>
      </trkpt>
      <trkpt lat="51.572749" lon="7.582985">
        <ele>72.000298</ele>
        <time>2026-09-01T08:08:28.615Z</time>
      </trkpt>
      <trkpt lat="51.572231" lon="7.583147">
        <ele>72.366293</ele>
        <time>2026-09-01T08:08:44.055Z</time>
      </trkpt>
      <trkpt lat="51.572071" lon="7.583157">
        <ele>72.477349</ele>
        <time>2026-09-01T08:08:48.889Z</time>
      </trkpt>
      <trkpt lat="51.571810" lon="7.582961">
        <ele>72.815759</ele>
        <time>2026-09-01T08:08:57.731Z</time>
      </trkpt>
      <trkpt lat="51.571434" lon="7.582596">
        <ele>73.343316</ele>
        <time>2026-09-01T08:09:10.928Z</time>
      </trkpt>
      <trkpt lat="51.571209" lon="7.582335">
        <ele>73.676549</ele>
        <time>2026-09-01T08:09:18.621Z</time>
      </trkpt>
      <trkpt lat="51.570891" lon="7.581863">
        <ele>74.196317</ele>
        <time>2026-09-01T08:09:29.735Z</time>
      </trkpt>
      <trkpt lat="51.570872" lon="7.581830">
        <ele>74.229906</ele>
        <time>2026-09-01T08:09:30.426Z</time>
      </trkpt>
      <trkpt lat="51.570817" lon="7.581802">
        <ele>74.299209</ele>
        <time>2026-09-01T08:09:31.843Z</time>
      </trkpt>
      <trkpt lat="51.567146" lon="7.580045">
        <ele>75.102492</ele>
        <time>2026-09-01T08:10:59.294Z</time>
      </trkpt>
      <trkpt lat="51.566342" lon="7.580212">
        <ele>74.955885</ele>
        <time>2026-09-01T08:11:16.306Z</time>
      </trkpt>
      <trkpt lat="51.566269" lon="7.580227">
        <ele>74.941126</ele>
        <time>2026-09-01T08:11:17.803Z</time>
      </trkpt>
      <trkpt lat="51.566169" lon="7.580213">
        <ele>74.920995</ele>
        <time>2026-09-01T08:11:19.889Z</time>
      </trkpt>
      <trkpt lat="51.566178" lon="7.578823">
        <ele>74.747702</ele>
        <time>2026-09-01T08:11:38.794Z</time>
      </trkpt>
      <trkpt lat="51.566169" lon="7.580213">
        <ele>74.359523</ele>
        <time>2026-09-01T08:11:56.845Z</time>
      </trkpt>
      <trkpt lat="51.566220" lon="7.581224">
        <ele>74.074810</ele>
        <time>2026-09-01T08:12:11.987Z</time>
      </trkpt>
      <trkpt lat="51.566151" lon="7.581715">
        <ele>73.933191</ele>
        <time>2026-09-01T08:12:18.953Z</time>
      </trkpt>
      <trkpt lat="51.566185" lon="7.581948">
        <ele>73.811831</ele>
        <time>2026-09-01T08:12:22.139Z</time>
      </trkpt>
      <trkpt lat="51.566432" lon="7.582770">
        <ele>73.348872</ele>
        <time>2026-09-01T08:12:34.181Z</time>
      </trkpt>
      <trkpt lat="51.566749" lon="7.586292">
        <ele>71.938478</ele>
        <time>2026-09-01T08:13:23.899Z</time>
      </trkpt>
      <trkpt lat="51.566868" lon="7.587677">
        <ele>71.620484</ele>
        <time>2026-09-01T08:13:44.752Z</time>
      </trkpt>
      <trkpt lat="51.566959" lon="7.588716">
        <ele>71.601220</ele>
        <time>2026-09-01T08:14:00.784Z</time>
      </trkpt>
      <trkpt lat="51.567211" lon="7.589502">
        <ele>71.584984</ele>
        <time>2026-09-01T08:14:14.096Z</time>
      </trkpt>
      <trkpt lat="51.567839" lon="7.591280">
        <ele>71.603570</ele>
        <time>2026-09-01T08:14:46.238Z</time>
      </trkpt>
      <trkpt lat="51.568633" lon="7.593504">
        <ele>71.371871</ele>
        <time>2026-09-01T08:15:25.294Z</time>
      </trkpt>
      <trkpt lat="51.568607" lon="7.593812">
        <ele>71.295986</ele>
        <time>2026-09-01T08:15:32.126Z</time>
      </trkpt>
      <trkpt lat="51.568814" lon="7.594203">
        <ele>71.170597</ele>
        <time>2026-09-01T08:15:43.344Z</time>
      </trkpt>
      <trkpt lat="51.568881" lon="7.594726">
        <ele>71.040230</ele>
        <time>2026-09-01T08:15:54.942Z</time>
      </trkpt>
      <trkpt lat="51.569047" lon="7.594983">
        <ele>70.949744</ele>
        <time>2026-09-01T08:16:02.970Z</time>
      </trkpt>
      <trkpt lat="51.569040" lon="7.595915">
        <ele>70.565821</ele>
        <time>2026-09-01T08:16:23.048Z</time>
      </trkpt>
      <trkpt lat="51.568937" lon="7.596320">
        <ele>70.378221</ele>
        <time>2026-09-01T08:16:32.441Z</time>
      </trkpt>
      <trkpt lat="51.568954" lon="7.596743">
        <ele>70.196497</ele>
        <time>2026-09-01T08:16:41.518Z</time>
      </trkpt>
      <trkpt lat="51.569148" lon="7.597260">
        <ele>69.937595</ele>
        <time>2026-09-01T08:16:54.372Z</time>
      </trkpt>
      <trkpt lat="51.569295" lon="7.597509">
        <ele>69.790371</ele>
        <time>2026-09-01T08:17:01.721Z</time>
      </trkpt>
      <trkpt lat="51.569574" lon="7.598663">
        <ele>69.626492</ele>
        <time>2026-09-01T08:17:28.818Z</time>
      </trkpt>
      <trkpt lat="51.569521" lon="7.598898">
        <ele>69.611009</ele>
        <time>2026-09-01T08:17:34.447Z</time>
      </trkpt>
      <trkpt lat="51.569361" lon="7.599603">
        <ele>69.564525</ele>
        <time>2026-09-01T08:17:51.799Z</time>
      </trkpt>
      <trkpt lat="51.569393" lon="7.601254">
        <ele>69.532773</ele>
        <time>2026-09-01T08:18:31.529Z</time>
      </trkpt>
      <trkpt lat="51.570673" lon="7.601448">
        <ele>69.596910</ele>
        <time>2026-09-01T08:19:00.050Z</time>
      </trkpt>
      <trkpt lat="51.571246" lon="7.601472">
        <ele>69.333621</ele>
        <time>2026-09-01T08:19:12.051Z</time>
      </trkpt>
      <trkpt lat="51.571266" lon="7.601471">
        <ele>69.323641</ele>
        <time>2026-09-01T08:19:12.468Z</time>
      </trkpt>
      <trkpt lat="51.571620" lon="7.601514">
        <ele>69.146591</ele>
        <time>2026-09-01T08:19:19.659Z</time>
      </trkpt>
      <trkpt lat="51.571744" lon="7.601546">
        <ele>69.083959</ele>
        <time>2026-09-01T08:19:22.164Z</time>
      </trkpt>
      <trkpt lat="51.571893" lon="7.601610">
        <ele>69.007047</ele>
        <time>2026-09-01T08:19:25.247Z</time>
      </trkpt>
      <trkpt lat="51.572037" lon="7.601626">
        <ele>68.935060</ele>
        <time>2026-09-01T08:19:28.133Z</time>
      </trkpt>
      <trkpt lat="51.572200" lon="7.601791">
        <ele>68.839017</ele>
        <time>2026-09-01T08:19:31.990Z</time>
      </trkpt>
      <trkpt lat="51.572363" lon="7.602100">
        <ele>68.713390</ele>
        <time>2026-09-01T08:19:37.095Z</time>
      </trkpt>
      <trkpt lat="51.572461" lon="7.602503">
        <ele>68.682073</ele>
        <time>2026-09-01T08:19:42.631Z</time>
      </trkpt>
      <trkpt lat="51.572520" lon="7.602946">
        <ele>68.659333</ele>
        <time>2026-09-01T08:19:48.558Z</time>
      </trkpt>
      <trkpt lat="51.572651" lon="7.604226">
        <ele>68.594221</ele>
        <time>2026-09-01T08:20:05.988Z</time>
      </trkpt>
      <trkpt lat="51.572702" lon="7.605328">
        <ele>68.720423</ele>
        <time>2026-09-01T08:20:22.446Z</time>
      </trkpt>
      <trkpt lat="51.572698" lon="7.606122">
        <ele>69.084374</ele>
        <time>2026-09-01T08:20:34.706Z</time>
      </trkpt>
      <trkpt lat="51.572689" lon="7.606494">
        <ele>69.255014</ele>
        <time>2026-09-01T08:20:40.582Z</time>
      </trkpt>
      <trkpt lat="51.572677" lon="7.606933">
        <ele>69.456429</ele>
        <time>2026-09-01T08:20:47.600Z</time>
      </trkpt>
      <trkpt lat="51.572673" lon="7.607119">
        <ele>69.541735</ele>
        <time>2026-09-01T08:20:50.592Z</time>
      </trkpt>
      <trkpt lat="51.572667" lon="7.607358">
        <ele>69.651373</ele>
        <time>2026-09-01T08:20:54.522Z</time>
      </trkpt>
      <trkpt lat="51.572666" lon="7.607434">
        <ele>69.686217</ele>
        <time>2026-09-01T08:20:55.780Z</time>
      </trkpt>
      <trkpt lat="51.572660" lon="7.607718">
        <ele>69.816467</ele>
        <time>2026-09-01T08:21:00.559Z</time>
      </trkpt>
      <trkpt lat="51.572657" lon="7.607800">
        <ele>69.854117</ele>
        <time>2026-09-01T08:21:01.929Z</time>
      </trkpt>
      <trkpt lat="51.572638" lon="7.608691">
        <ele>69.988480</ele>
        <time>2026-09-01T08:21:16.074Z</time>
      </trkpt>
      <trkpt lat="51.572632" lon="7.608890">
        <ele>70.013818</ele>
        <time>2026-09-01T08:21:19.046Z</time>
      </trkpt>
      <trkpt lat="51.572631" lon="7.609032">
        <ele>70.031878</ele>
        <time>2026-09-01T08:21:21.141Z</time>
      </trkpt>
      <trkpt lat="51.572628" lon="7.609141">
        <ele>70.045754</ele>
        <time>2026-09-01T08:21:22.692Z</time>
      </trkpt>
      <trkpt lat="51.572623" lon="7.609511">
        <ele>70.092820</ele>
        <time>2026-09-01T08:21:27.994Z</time>
      </trkpt>
      <trkpt lat="51.572674" lon="7.610743">
        <ele>70.249849</ele>
        <time>2026-09-01T08:21:44.641Z</time>
      </trkpt>
      <trkpt lat="51.572686" lon="7.610958">
        <ele>70.149442</ele>
        <time>2026-09-01T08:21:47.350Z</time>
      </trkpt>
      <trkpt lat="51.572975" lon="7.611004">
        <ele>69.917818</ele>
        <time>2026-09-01T08:21:53.030Z</time>
      </trkpt>
      <trkpt lat="51.573162" lon="7.610995">
        <ele>69.768605</ele>
        <time>2026-09-01T08:21:56.677Z</time>
      </trkpt>
      <trkpt lat="51.573293" lon="7.610985">
        <ele>69.664005</ele>
        <time>2026-09-01T08:21:59.232Z</time>
      </trkpt>
      <trkpt lat="51.573442" lon="7.610972">
        <ele>69.544992</ele>
        <time>2026-09-01T08:22:02.163Z</time>
      </trkpt>
      <trkpt lat="51.574243" lon="7.610909">
        <ele>68.905373</ele>
        <time>2026-09-01T08:22:17.940Z</time>
      </trkpt>
      <trkpt lat="51.575084" lon="7.610863">
        <ele>68.132348</ele>
        <time>2026-09-01T08:22:33.953Z</time>
      </trkpt>
      <trkpt lat="51.575218" lon="7.610849">
        <ele>68.006514</ele>
        <time>2026-09-01T08:22:36.526Z</time>
      </trkpt>
      <trkpt lat="51.575220" lon="7.611086">
        <ele>67.868476</ele>
        <time>2026-09-01T08:22:39.365Z</time>
      </trkpt>
      <trkpt lat="51.575772" lon="7.611171">
        <ele>67.348841</ele>
        <time>2026-09-01T08:22:54.080Z</time>
      </trkpt>
      <trkpt lat="51.576412" lon="7.611252">
        <ele>66.809947</ele>
        <time>2026-09-01T08:23:11.295Z</time>
      </trkpt>
      <trkpt lat="51.576463" lon="7.611178">
        <ele>66.756104</ele>
        <time>2026-09-01T08:23:13.151Z</time>
      </trkpt>
      <trkpt lat="51.576875" lon="7.611331">
        <ele>66.424582</ele>
        <time>2026-09-01T08:23:22.024Z</time>
      </trkpt>
      <trkpt lat="51.576937" lon="7.611408">
        <ele>66.363175</ele>
        <time>2026-09-01T08:23:23.663Z</time>
      </trkpt>
      <trkpt lat="51.577681" lon="7.611718">
        <ele>65.760599</ele>
        <time>2026-09-01T08:23:38.784Z</time>
      </trkpt>
      <trkpt lat="51.577724" lon="7.611710">
        <ele>65.726660</ele>
        <time>2026-09-01T08:23:39.609Z</time>
      </trkpt>
      <trkpt lat="51.577793" lon="7.611742">
        <ele>65.664990</ele>
        <time>2026-09-01T08:23:40.984Z</time>
      </trkpt>
      <trkpt lat="51.577841" lon="7.611875">
        <ele>65.582094</ele>
        <time>2026-09-01T08:23:42.799Z</time>
      </trkpt>
      <trkpt lat="51.577909" lon="7.611906">
        <ele>65.520796</ele>
        <time>2026-09-01T08:23:44.176Z</time>
      </trkpt>
      <trkpt lat="51.577978" lon="7.611936">
        <ele>65.458807</ele>
        <time>2026-09-01T08:23:45.526Z</time>
      </trkpt>
      <trkpt lat="51.578121" lon="7.611740">
        <ele>65.295891</ele>
        <time>2026-09-01T08:23:49.111Z</time>
      </trkpt>
      <trkpt lat="51.578189" lon="7.611729">
        <ele>65.236617</ele>
        <time>2026-09-01T08:23:50.430Z</time>
      </trkpt>
      <trkpt lat="51.578272" lon="7.611745">
        <ele>65.164117</ele>
        <time>2026-09-01T08:23:52.060Z</time>
      </trkpt>
      <trkpt lat="51.578439" lon="7.611701">
        <ele>65.017350</ele>
        <time>2026-09-01T08:23:55.349Z</time>
      </trkpt>
      <trkpt lat="51.578577" lon="7.611687">
        <ele>64.897426</ele>
        <time>2026-09-01T08:23:58.051Z</time>
      </trkpt>
      <trkpt lat="51.578818" lon="7.611715">
        <ele>64.687863</ele>
        <time>2026-09-01T08:24:02.833Z</time>
      </trkpt>
      <trkpt lat="51.579180" lon="7.611831">
        <ele>64.367737</ele>
        <time>2026-09-01T08:24:10.121Z</time>
      </trkpt>
      <trkpt lat="51.579428" lon="7.611950">
        <ele>64.155239</ele>
        <time>2026-09-01T08:24:15.220Z</time>
      </trkpt>
      <trkpt lat="51.579558" lon="7.612016">
        <ele>64.116919</ele>
        <time>2026-09-01T08:24:17.936Z</time>
      </trkpt>
      <trkpt lat="51.579881" lon="7.612085">
        <ele>64.025322</ele>
        <time>2026-09-01T08:24:24.599Z</time>
      </trkpt>
      <trkpt lat="51.580126" lon="7.612058">
        <ele>63.956288</ele>
        <time>2026-09-01T08:24:29.709Z</time>
      </trkpt>
      <trkpt lat="51.580204" lon="7.612016">
        <ele>63.933167</ele>
        <time>2026-09-01T08:24:31.465Z</time>
      </trkpt>
      <trkpt lat="51.580306" lon="7.611902">
        <ele>63.898256</ele>
        <time>2026-09-01T08:24:34.101Z</time>
      </trkpt>
      <trkpt lat="51.580524" lon="7.611733">
        <ele>63.830233</ele>
        <time>2026-09-01T08:24:39.275Z</time>
      </trkpt>
      <trkpt lat="51.580571" lon="7.611855">
        <ele>63.805158</ele>
        <time>2026-09-01T08:24:41.209Z</time>
      </trkpt>
      <trkpt lat="51.580571" lon="7.611999">
        <ele>63.780003</ele>
        <time>2026-09-01T08:24:43.162Z</time>
      </trkpt>
      <trkpt lat="51.580422" lon="7.612529">
        <ele>63.678384</ele>
        <time>2026-09-01T08:24:51.143Z</time>
      </trkpt>
      <trkpt lat="51.580374" lon="7.612921">
        <ele>63.671962</ele>
        <time>2026-09-01T08:24:56.766Z</time>
      </trkpt>
      <trkpt lat="51.580368" lon="7.613189">
        <ele>63.688608</ele>
        <time>2026-09-01T08:25:00.670Z</time>
      </trkpt>
      <trkpt lat="51.580462" lon="7.614099">
        <ele>63.745868</ele>
        <time>2026-09-01T08:25:14.262Z</time>
      </trkpt>
      <trkpt lat="51.580546" lon="7.614426">
        <ele>63.767831</ele>
        <time>2026-09-01T08:25:19.340Z</time>
      </trkpt>
      <trkpt lat="51.580646" lon="7.614613">
        <ele>63.783145</ele>
        <time>2026-09-01T08:25:22.812Z</time>
      </trkpt>
      <trkpt lat="51.580725" lon="7.614761">
        <ele>63.795255</ele>
        <time>2026-09-01T08:25:25.524Z</time>
      </trkpt>
      <trkpt lat="51.581110" lon="7.615411">
        <ele>63.770747</ele>
        <time>2026-09-01T08:25:37.702Z</time>
      </trkpt>
      <trkpt lat="51.581595" lon="7.616227">
        <ele>63.488962</ele>
        <time>2026-09-01T08:25:52.376Z</time>
      </trkpt>
      <trkpt lat="51.582003" lon="7.616978">
        <ele>63.240026</ele>
        <time>2026-09-01T08:26:05.076Z</time>
      </trkpt>
      <trkpt lat="51.582294" lon="7.617589">
        <ele>63.024019</ele>
        <time>2026-09-01T08:26:14.865Z</time>
      </trkpt>
      <trkpt lat="51.582604" lon="7.618497">
        <ele>62.670082</ele>
        <time>2026-09-01T08:26:28.037Z</time>
      </trkpt>
      <trkpt lat="51.582555" lon="7.618547">
        <ele>62.638184</ele>
        <time>2026-09-01T08:26:29.224Z</time>
      </trkpt>
      <trkpt lat="51.582576" lon="7.618656">
        <ele>62.599198</ele>
        <time>2026-09-01T08:26:30.667Z</time>
      </trkpt>
      <trkpt lat="51.583074" lon="7.620084">
        <ele>62.070203</ele>
        <time>2026-09-01T08:26:51.375Z</time>
      </trkpt>
      <trkpt lat="51.583151" lon="7.620257">
        <ele>62.023823</ele>
        <time>2026-09-01T08:26:54.064Z</time>
      </trkpt>
      <trkpt lat="51.583540" lon="7.620854">
        <ele>61.835288</ele>
        <time>2026-09-01T08:27:05.171Z</time>
      </trkpt>
      <trkpt lat="51.583852" lon="7.621542">
        <ele>61.649656</ele>
        <time>2026-09-01T08:27:16.487Z</time>
      </trkpt>
      <trkpt lat="51.583898" lon="7.621852">
        <ele>61.580193</ele>
        <time>2026-09-01T08:27:20.786Z</time>
      </trkpt>
      <trkpt lat="51.584011" lon="7.621981">
        <ele>61.531600</ele>
        <time>2026-09-01T08:27:23.783Z</time>
      </trkpt>
      <trkpt lat="51.584431" lon="7.622862">
        <ele>61.144468</ele>
        <time>2026-09-01T08:27:38.534Z</time>
      </trkpt>
      <trkpt lat="51.584511" lon="7.622948">
        <ele>61.086644</ele>
        <time>2026-09-01T08:27:40.548Z</time>
      </trkpt>
      <trkpt lat="51.584654" lon="7.623257">
        <ele>60.942753</ele>
        <time>2026-09-01T08:27:45.521Z</time>
      </trkpt>
      <trkpt lat="51.584735" lon="7.623523">
        <ele>60.832122</ele>
        <time>2026-09-01T08:27:49.236Z</time>
      </trkpt>
      <trkpt lat="51.585828" lon="7.625909">
        <ele>59.423254</ele>
        <time>2026-09-01T08:28:24.743Z</time>
      </trkpt>
      <trkpt lat="51.586437" lon="7.627436">
        <ele>58.581119</ele>
        <time>2026-09-01T08:28:47.465Z</time>
      </trkpt>
      <trkpt lat="51.586511" lon="7.627513">
        <ele>58.529788</ele>
        <time>2026-09-01T08:28:49.265Z</time>
      </trkpt>
      <trkpt lat="51.586687" lon="7.627967">
        <ele>58.336107</ele>
        <time>2026-09-01T08:28:55.929Z</time>
      </trkpt>
      <trkpt lat="51.586866" lon="7.628347">
        <ele>58.163512</ele>
        <time>2026-09-01T08:29:01.766Z</time>
      </trkpt>
      <trkpt lat="51.587032" lon="7.628632">
        <ele>58.022123</ele>
        <time>2026-09-01T08:29:06.713Z</time>
      </trkpt>
      <trkpt lat="51.587188" lon="7.628808">
        <ele>57.911146</ele>
        <time>2026-09-01T08:29:10.689Z</time>
      </trkpt>
      <trkpt lat="51.587511" lon="7.629041">
        <ele>57.826776</ele>
        <time>2026-09-01T08:29:18.137Z</time>
      </trkpt>
      <trkpt lat="51.587544" lon="7.629061">
        <ele>57.830514</ele>
        <time>2026-09-01T08:29:18.871Z</time>
      </trkpt>
      <trkpt lat="51.587703" lon="7.629160">
        <ele>57.848586</ele>
        <time>2026-09-01T08:29:22.511Z</time>
      </trkpt>
      <trkpt lat="51.587786" lon="7.629212">
        <ele>57.858028</ele>
        <time>2026-09-01T08:29:24.468Z</time>
      </trkpt>
      <trkpt lat="51.587859" lon="7.629209">
        <ele>57.865769</ele>
        <time>2026-09-01T08:29:26.025Z</time>
      </trkpt>
      <trkpt lat="51.587731" lon="7.630836">
        <ele>57.973784</ele>
        <time>2026-09-01T08:29:49.694Z</time>
      </trkpt>
      <trkpt lat="51.587666" lon="7.631678">
        <ele>58.106486</ele>
        <time>2026-09-01T08:30:02.177Z</time>
      </trkpt>
      <trkpt lat="51.587639" lon="7.632023">
        <ele>58.186179</ele>
        <time>2026-09-01T08:30:07.332Z</time>
      </trkpt>
      <trkpt lat="51.587584" lon="7.632133">
        <ele>58.218539</ele>
        <time>2026-09-01T08:30:09.578Z</time>
      </trkpt>
      <trkpt lat="51.587527" lon="7.632523">
        <ele>58.310360</ele>
        <time>2026-09-01T08:30:16.130Z</time>
      </trkpt>
      <trkpt lat="51.587303" lon="7.635038">
        <ele>58.893350</ele>
        <time>2026-09-01T08:30:57.661Z</time>
      </trkpt>
      <trkpt lat="51.587179" lon="7.637684">
        <ele>59.505748</ele>
        <time>2026-09-01T08:31:40.702Z</time>
      </trkpt>
      <trkpt lat="51.587211" lon="7.638977">
        <ele>59.807297</ele>
        <time>2026-09-01T08:32:01.932Z</time>
      </trkpt>
      <trkpt lat="51.587484" lon="7.640597">
        <ele>60.330201</ele>
        <time>2026-09-01T08:32:29.345Z</time>
      </trkpt>
      <trkpt lat="51.587583" lon="7.641667">
        <ele>60.751553</ele>
        <time>2026-09-01T08:32:47.120Z</time>
      </trkpt>
      <trkpt lat="51.587868" lon="7.642194">
        <ele>61.023678</ele>
        <time>2026-09-01T08:32:59.006Z</time>
      </trkpt>
      <trkpt lat="51.587905" lon="7.642322">
        <ele>61.078664</ele>
        <time>2026-09-01T08:33:01.508Z</time>
      </trkpt>
      <trkpt lat="51.587871" lon="7.642399">
        <ele>61.115457</ele>
        <time>2026-09-01T08:33:03.222Z</time>
      </trkpt>
      <trkpt lat="51.587806" lon="7.642717">
        <ele>61.352469</ele>
        <time>2026-09-01T08:33:09.411Z</time>
      </trkpt>
      <trkpt lat="51.587931" lon="7.643492">
        <ele>61.950737</ele>
        <time>2026-09-01T08:33:24.883Z</time>
      </trkpt>
      <trkpt lat="51.588133" lon="7.644707">
        <ele>62.890514</ele>
        <time>2026-09-01T08:33:48.499Z</time>
      </trkpt>
      <trkpt lat="51.588171" lon="7.645274">
        <ele>63.293304</ele>
        <time>2026-09-01T08:33:58.770Z</time>
      </trkpt>
      <trkpt lat="51.588156" lon="7.645654">
        <ele>63.299341</ele>
        <time>2026-09-01T08:34:05.342Z</time>
      </trkpt>
      <trkpt lat="51.588159" lon="7.646414">
        <ele>63.311389</ele>
        <time>2026-09-01T08:34:17.306Z</time>
      </trkpt>
      <trkpt lat="51.588094" lon="7.647055">
        <ele>63.321686</ele>
        <time>2026-09-01T08:34:26.729Z</time>
      </trkpt>
      <trkpt lat="51.588101" lon="7.647453">
        <ele>63.327998</ele>
        <time>2026-09-01T08:34:32.617Z</time>
      </trkpt>
      <trkpt lat="51.588131" lon="7.647741">
        <ele>63.332628</ele>
        <time>2026-09-01T08:34:36.940Z</time>
      </trkpt>
      <trkpt lat="51.588269" lon="7.648322">
        <ele>63.223044</ele>
        <time>2026-09-01T08:34:45.885Z</time>
      </trkpt>
      <trkpt lat="51.588302" lon="7.648671">
        <ele>63.052522</ele>
        <time>2026-09-01T08:34:50.921Z</time>
      </trkpt>
      <trkpt lat="51.588201" lon="7.649191">
        <ele>62.789354</ele>
        <time>2026-09-01T08:34:58.692Z</time>
      </trkpt>
      <trkpt lat="51.588132" lon="7.649588">
        <ele>62.590225</ele>
        <time>2026-09-01T08:35:04.509Z</time>
      </trkpt>
      <trkpt lat="51.588046" lon="7.650079">
        <ele>62.343807</ele>
        <time>2026-09-01T08:35:11.550Z</time>
      </trkpt>
      <trkpt lat="51.588084" lon="7.650604">
        <ele>62.088496</ele>
        <time>2026-09-01T08:35:18.604Z</time>
      </trkpt>
      <trkpt lat="51.588066" lon="7.650930">
        <ele>61.931015</ele>
        <time>2026-09-01T08:35:22.829Z</time>
      </trkpt>
      <trkpt lat="51.588084" lon="7.651389">
        <ele>61.722547</ele>
        <time>2026-09-01T08:35:28.732Z</time>
      </trkpt>
      <trkpt lat="51.588035" lon="7.651890">
        <ele>61.492660</ele>
        <time>2026-09-01T08:35:35.400Z</time>
      </trkpt>
      <trkpt lat="51.588036" lon="7.651996">
        <ele>61.444607</ele>
        <time>2026-09-01T08:35:36.809Z</time>
      </trkpt>
      <trkpt lat="51.588039" lon="7.652223">
        <ele>61.341690</ele>
        <time>2026-09-01T08:35:39.859Z</time>
      </trkpt>
      <trkpt lat="51.588172" lon="7.652882">
        <ele>61.027617</ele>
        <time>2026-09-01T08:35:49.378Z</time>
      </trkpt>
      <trkpt lat="51.588511" lon="7.654067">
        <ele>60.769314</ele>
        <time>2026-09-01T08:36:09.157Z</time>
      </trkpt>
      <trkpt lat="51.588673" lon="7.654381">
        <ele>60.905457</ele>
        <time>2026-09-01T08:36:15.870Z</time>
      </trkpt>
      <trkpt lat="51.588909" lon="7.654309">
        <ele>61.034417</ele>
        <time>2026-09-01T08:36:21.894Z</time>
      </trkpt>
      <trkpt lat="51.589497" lon="7.653980">
        <ele>61.368634</ele>
        <time>2026-09-01T08:36:37.777Z</time>
      </trkpt>
      <trkpt lat="51.589587" lon="7.653919">
        <ele>61.421062</ele>
        <time>2026-09-01T08:36:40.285Z</time>
      </trkpt>
      <trkpt lat="51.590767" lon="7.653507">
        <ele>61.938253</ele>
        <time>2026-09-01T08:37:10.467Z</time>
      </trkpt>
      <trkpt lat="51.590876" lon="7.653469">
        <ele>61.981627</ele>
        <time>2026-09-01T08:37:13.142Z</time>
      </trkpt>
      <trkpt lat="51.590983" lon="7.653463">
        <ele>62.023266</ele>
        <time>2026-09-01T08:37:15.669Z</time>
      </trkpt>
      <trkpt lat="51.591039" lon="7.653505">
        <ele>62.047293</ele>
        <time>2026-09-01T08:37:17.115Z</time>
      </trkpt>
      <trkpt lat="51.591185" lon="7.653589">
        <ele>62.107592</ele>
        <time>2026-09-01T08:37:20.731Z</time>
      </trkpt>
      <trkpt lat="51.591278" lon="7.653565">
        <ele>62.144223</ele>
        <time>2026-09-01T08:37:22.857Z</time>
      </trkpt>
      <trkpt lat="51.591321" lon="7.653525">
        <ele>62.163537</ele>
        <time>2026-09-01T08:37:23.968Z</time>
      </trkpt>
      <trkpt lat="51.591426" lon="7.653313">
        <ele>62.229045</ele>
        <time>2026-09-01T08:37:27.643Z</time>
      </trkpt>
      <trkpt lat="51.591552" lon="7.653259">
        <ele>62.279755</ele>
        <time>2026-09-01T08:37:30.460Z</time>
      </trkpt>
      <trkpt lat="51.591790" lon="7.653234">
        <ele>62.318042</ele>
        <time>2026-09-01T08:37:35.604Z</time>
      </trkpt>
      <trkpt lat="51.592013" lon="7.653617">
        <ele>62.357659</ele>
        <time>2026-09-01T08:37:42.675Z</time>
      </trkpt>
      <trkpt lat="51.592049" lon="7.653665">
        <ele>62.363338</ele>
        <time>2026-09-01T08:37:44.050Z</time>
      </trkpt>
      <trkpt lat="51.592080" lon="7.653695">
        <ele>62.367732</ele>
        <time>2026-09-01T08:37:45.084Z</time>
      </trkpt>
      <trkpt lat="51.592131" lon="7.653634">
        <ele>62.375451</ele>
        <time>2026-09-01T08:37:46.885Z</time>
      </trkpt>
      <trkpt lat="51.592197" lon="7.653614">
        <ele>62.383610</ele>
        <time>2026-09-01T08:37:48.862Z</time>
      </trkpt>
      <trkpt lat="51.592286" lon="7.653587">
        <ele>62.394612</ele>
        <time>2026-09-01T08:37:51.428Z</time>
      </trkpt>
      <trkpt lat="51.592258" lon="7.653515">
        <ele>62.401023</ele>
        <time>2026-09-01T08:37:52.995Z</time>
      </trkpt>
      <trkpt lat="51.592188" lon="7.653028">
        <ele>62.438749</ele>
        <time>2026-09-01T08:38:02.126Z</time>
      </trkpt>
      <trkpt lat="51.593243" lon="7.652687">
        <ele>62.862813</ele>
        <time>2026-09-01T08:38:27.932Z</time>
      </trkpt>
      <trkpt lat="51.594018" lon="7.652411">
        <ele>63.449723</ele>
        <time>2026-09-01T08:38:48.446Z</time>
      </trkpt>
      <trkpt lat="51.594338" lon="7.652294">
        <ele>63.692365</ele>
        <time>2026-09-01T08:38:56.867Z</time>
      </trkpt>
      <trkpt lat="51.594532" lon="7.652291">
        <ele>63.835820</ele>
        <time>2026-09-01T08:39:01.827Z</time>
      </trkpt>
      <trkpt lat="51.594604" lon="7.652155">
        <ele>63.899797</ele>
        <time>2026-09-01T08:39:04.670Z</time>
      </trkpt>
      <trkpt lat="51.595135" lon="7.652224">
        <ele>64.200052</ele>
        <time>2026-09-01T08:39:18.323Z</time>
      </trkpt>
      <trkpt lat="51.595411" lon="7.652337">
        <ele>64.360563</ele>
        <time>2026-09-01T08:39:25.505Z</time>
      </trkpt>
      <trkpt lat="51.595706" lon="7.652488">
        <ele>64.535033</ele>
        <time>2026-09-01T08:39:33.007Z</time>
      </trkpt>
      <trkpt lat="51.595746" lon="7.652673">
        <ele>64.603617</ele>
        <time>2026-09-01T08:39:35.886Z</time>
      </trkpt>
      <trkpt lat="51.596806" lon="7.653201">
        <ele>64.772141</ele>
        <time>2026-09-01T08:40:01.337Z</time>
      </trkpt>
      <trkpt lat="51.596918" lon="7.653202">
        <ele>64.758050</ele>
        <time>2026-09-01T08:40:04.560Z</time>
      </trkpt>
      <trkpt lat="51.596987" lon="7.653239">
        <ele>64.748900</ele>
        <time>2026-09-01T08:40:06.654Z</time>
      </trkpt>
      <trkpt lat="51.597070" lon="7.653284">
        <ele>64.737881</ele>
        <time>2026-09-01T08:40:09.127Z</time>
      </trkpt>
      <trkpt lat="51.597137" lon="7.653368">
        <ele>64.727197</ele>
        <time>2026-09-01T08:40:11.545Z</time>
      </trkpt>
      <trkpt lat="51.597614" lon="7.653656">
        <ele>64.663103</ele>
        <time>2026-09-01T08:40:22.245Z</time>
      </trkpt>
      <trkpt lat="51.598295" lon="7.654161">
        <ele>64.822126</ele>
        <time>2026-09-01T08:40:37.679Z</time>
      </trkpt>
      <trkpt lat="51.599176" lon="7.654928">
        <ele>65.224246</ele>
        <time>2026-09-01T08:41:01.764Z</time>
      </trkpt>
      <trkpt lat="51.599587" lon="7.655457">
        <ele>65.620521</ele>
        <time>2026-09-01T08:41:16.211Z</time>
      </trkpt>
      <trkpt lat="51.600066" lon="7.656052">
        <ele>66.397428</ele>
        <time>2026-09-01T08:41:33.522Z</time>
      </trkpt>
      <trkpt lat="51.600214" lon="7.656274">
        <ele>66.657186</ele>
        <time>2026-09-01T08:41:39.332Z</time>
      </trkpt>
      <trkpt lat="51.600454" lon="7.656779">
        <ele>67.164365</ele>
        <time>2026-09-01T08:41:50.315Z</time>
      </trkpt>
      <trkpt lat="51.600686" lon="7.657505">
        <ele>67.721607</ele>
        <time>2026-09-01T08:42:03.619Z</time>
      </trkpt>
      <trkpt lat="51.600878" lon="7.658364">
        <ele>68.006978</ele>
        <time>2026-09-01T08:42:17.486Z</time>
      </trkpt>
      <trkpt lat="51.601096" lon="7.659221">
        <ele>68.296462</ele>
        <time>2026-09-01T08:42:30.791Z</time>
      </trkpt>
      <trkpt lat="51.601371" lon="7.659888">
        <ele>68.546710</ele>
        <time>2026-09-01T08:42:42.313Z</time>
      </trkpt>
      <trkpt lat="51.601554" lon="7.660209">
        <ele>68.847855</ele>
        <time>2026-09-01T08:42:48.877Z</time>
      </trkpt>
      <trkpt lat="51.601962" lon="7.660766">
        <ele>69.497616</ele>
        <time>2026-09-01T08:43:02.888Z</time>
      </trkpt>
      <trkpt lat="51.602172" lon="7.660945">
        <ele>69.786236</ele>
        <time>2026-09-01T08:43:09.460Z</time>
      </trkpt>
      <trkpt lat="51.602640" lon="7.661264">
        <ele>70.403539</ele>
        <time>2026-09-01T08:43:24.171Z</time>
      </trkpt>
      <trkpt lat="51.602983" lon="7.661417">
        <ele>70.812511</ele>
        <time>2026-09-01T08:43:35.536Z</time>
      </trkpt>
      <trkpt lat="51.603591" lon="7.661451">
        <ele>71.348282</ele>
        <time>2026-09-01T08:43:54.624Z</time>
      </trkpt>
      <trkpt lat="51.605043" lon="7.661160">
        <ele>72.162948</ele>
        <time>2026-09-01T08:44:33.502Z</time>
      </trkpt>
      <trkpt lat="51.605472" lon="7.661091">
        <ele>71.946636</ele>
        <time>2026-09-01T08:44:43.251Z</time>
      </trkpt>
      <trkpt lat="51.605759" lon="7.660996">
        <ele>71.799628</ele>
        <time>2026-09-01T08:44:49.703Z</time>
      </trkpt>
      <trkpt lat="51.606234" lon="7.660931">
        <ele>71.560448</ele>
        <time>2026-09-01T08:45:00.002Z</time>
      </trkpt>
      <trkpt lat="51.606805" lon="7.660919">
        <ele>71.279886</ele>
        <time>2026-09-01T08:45:12.504Z</time>
      </trkpt>
      <trkpt lat="51.608076" lon="7.661219">
        <ele>70.659549</ele>
        <time>2026-09-01T08:45:42.436Z</time>
      </trkpt>
      <trkpt lat="51.608132" lon="7.661235">
        <ele>70.632084</ele>
        <time>2026-09-01T08:45:43.809Z</time>
      </trkpt>
      <trkpt lat="51.608534" lon="7.661399">
        <ele>70.627811</ele>
        <time>2026-09-01T08:45:53.829Z</time>
      </trkpt>
      <trkpt lat="51.608908" lon="7.661628">
        <ele>70.721203</ele>
        <time>2026-09-01T08:46:03.671Z</time>
      </trkpt>
      <trkpt lat="51.609020" lon="7.661698">
        <ele>70.749244</ele>
        <time>2026-09-01T08:46:06.691Z</time>
      </trkpt>
      <trkpt lat="51.609089" lon="7.661741">
        <ele>70.766513</ele>
        <time>2026-09-01T08:46:08.559Z</time>
      </trkpt>
      <trkpt lat="51.609393" lon="7.662001">
        <ele>70.846857</ele>
        <time>2026-09-01T08:46:17.405Z</time>
      </trkpt>
      <trkpt lat="51.609706" lon="7.662331">
        <ele>70.934179</ele>
        <time>2026-09-01T08:46:27.527Z</time>
      </trkpt>
      <trkpt lat="51.610166" lon="7.662904">
        <ele>71.196364</ele>
        <time>2026-09-01T08:46:43.646Z</time>
      </trkpt>
      <trkpt lat="51.610323" lon="7.663115">
        <ele>71.314143</ele>
        <time>2026-09-01T08:46:49.287Z</time>
      </trkpt>
      <trkpt lat="51.610753" lon="7.663580">
        <ele>71.612464</ele>
        <time>2026-09-01T08:47:03.478Z</time>
      </trkpt>
      <trkpt lat="51.611142" lon="7.663911">
        <ele>71.865863</ele>
        <time>2026-09-01T08:47:15.272Z</time>
      </trkpt>
      <trkpt lat="51.611487" lon="7.664149">
        <ele>72.033525</ele>
        <time>2026-09-01T08:47:25.155Z</time>
      </trkpt>
      <trkpt lat="51.612342" lon="7.664409">
        <ele>72.144739</ele>
        <time>2026-09-01T08:47:47.488Z</time>
      </trkpt>
      <trkpt lat="51.612691" lon="7.664415">
        <ele>72.189350</ele>
        <time>2026-09-01T08:47:56.233Z</time>
      </trkpt>
      <trkpt lat="51.613035" lon="7.664343">
        <ele>72.233688</ele>
        <time>2026-09-01T08:48:04.779Z</time>
      </trkpt>
      <trkpt lat="51.613785" lon="7.664212">
        <ele>71.946415</ele>
        <time>2026-09-01T08:48:22.707Z</time>
      </trkpt>
      <trkpt lat="51.615773" lon="7.663782">
        <ele>70.664008</ele>
        <time>2026-09-01T08:49:07.715Z</time>
      </trkpt>
      <trkpt lat="51.616799" lon="7.663549">
        <ele>69.762437</ele>
        <time>2026-09-01T08:49:30.477Z</time>
      </trkpt>
      <trkpt lat="51.618350" lon="7.663213">
        <ele>68.198023</ele>
        <time>2026-09-01T08:50:03.903Z</time>
      </trkpt>
      <trkpt lat="51.618291" lon="7.662930">
        <ele>68.033341</ele>
        <time>2026-09-01T08:50:07.592Z</time>
      </trkpt>
      <trkpt lat="51.618286" lon="7.662782">
        <ele>68.013148</ele>
        <time>2026-09-01T08:50:09.442Z</time>
      </trkpt>
      <trkpt lat="51.618347" lon="7.662392">
        <ele>67.958354</ele>
        <time>2026-09-01T08:50:14.585Z</time>
      </trkpt>
      <trkpt lat="51.618247" lon="7.660739">
        <ele>67.732084</ele>
        <time>2026-09-01T08:50:37.364Z</time>
      </trkpt>
      <trkpt lat="51.618180" lon="7.660366">
        <ele>67.679183</ele>
        <time>2026-09-01T08:50:42.942Z</time>
      </trkpt>
      <trkpt lat="51.618171" lon="7.660114">
        <ele>67.644793</ele>
        <time>2026-09-01T08:50:46.463Z</time>
      </trkpt>
      <trkpt lat="51.618147" lon="7.659824">
        <ele>67.536650</ele>
        <time>2026-09-01T08:50:50.429Z</time>
      </trkpt>
      <trkpt lat="51.617989" lon="7.659399">
        <ele>67.352604</ele>
        <time>2026-09-01T08:50:56.914Z</time>
      </trkpt>
      <trkpt lat="51.617842" lon="7.658815">
        <ele>67.118472</ele>
        <time>2026-09-01T08:51:05.010Z</time>
      </trkpt>
      <trkpt lat="51.617579" lon="7.658068">
        <ele>66.799414</ele>
        <time>2026-09-01T08:51:15.591Z</time>
      </trkpt>
      <trkpt lat="51.617398" lon="7.657764">
        <ele>66.642927</ele>
        <time>2026-09-01T08:51:20.594Z</time>
      </trkpt>
      <trkpt lat="51.617307" lon="7.657483">
        <ele>66.503091</ele>
        <time>2026-09-01T08:51:24.309Z</time>
      </trkpt>
      <trkpt lat="51.617186" lon="7.656784">
        <ele>66.095026</ele>
        <time>2026-09-01T08:51:32.875Z</time>
      </trkpt>
      <trkpt lat="51.617176" lon="7.656617">
        <ele>66.000680</ele>
        <time>2026-09-01T08:51:34.889Z</time>
      </trkpt>
      <trkpt lat="51.617106" lon="7.655718">
        <ele>65.491177</ele>
        <time>2026-09-01T08:51:45.865Z</time>
      </trkpt>
      <trkpt lat="51.617091" lon="7.655609">
        <ele>65.428395</ele>
        <time>2026-09-01T08:51:47.220Z</time>
      </trkpt>
      <trkpt lat="51.617021" lon="7.655471">
        <ele>65.328188</ele>
        <time>2026-09-01T08:51:49.386Z</time>
      </trkpt>
      <trkpt lat="51.616902" lon="7.655429">
        <ele>65.217857</ele>
        <time>2026-09-01T08:51:51.799Z</time>
      </trkpt>
      <trkpt lat="51.616100" lon="7.655431">
        <ele>64.569129</ele>
        <time>2026-09-01T08:52:07.983Z</time>
      </trkpt>
      <trkpt lat="51.615686" lon="7.655018">
        <ele>64.204543</ele>
        <time>2026-09-01T08:52:17.886Z</time>
      </trkpt>
      <trkpt lat="51.615628" lon="7.654863">
        <ele>64.120417</ele>
        <time>2026-09-01T08:52:20.157Z</time>
      </trkpt>
      <trkpt lat="51.615594" lon="7.654397">
        <ele>63.902300</ele>
        <time>2026-09-01T08:52:25.981Z</time>
      </trkpt>
      <trkpt lat="51.615549" lon="7.653758">
        <ele>63.603347</ele>
        <time>2026-09-01T08:52:33.741Z</time>
      </trkpt>
      <trkpt lat="51.615486" lon="7.652919">
        <ele>62.873506</ele>
        <time>2026-09-01T08:52:43.593Z</time>
      </trkpt>
      <trkpt lat="51.615421" lon="7.652469">
        <ele>62.469354</ele>
        <time>2026-09-01T08:52:48.963Z</time>
      </trkpt>
      <trkpt lat="51.615134" lon="7.651505">
        <ele>61.534164</ele>
        <time>2026-09-01T08:53:01.216Z</time>
      </trkpt>
      <trkpt lat="51.615039" lon="7.651453">
        <ele>61.392812</ele>
        <time>2026-09-01T08:53:03.042Z</time>
      </trkpt>
      <trkpt lat="51.614962" lon="7.651336">
        <ele>61.243674</ele>
        <time>2026-09-01T08:53:04.928Z</time>
      </trkpt>
      <trkpt lat="51.614800" lon="7.650824">
        <ele>60.565517</ele>
        <time>2026-09-01T08:53:11.273Z</time>
      </trkpt>
      <trkpt lat="51.614705" lon="7.650654">
        <ele>60.254972</ele>
        <time>2026-09-01T08:53:13.782Z</time>
      </trkpt>
      <trkpt lat="51.614057" lon="7.649503">
        <ele>58.145359</ele>
        <time>2026-09-01T08:53:30.715Z</time>
      </trkpt>
      <trkpt lat="51.613972" lon="7.649355">
        <ele>57.871618</ele>
        <time>2026-09-01T08:53:32.828Z</time>
      </trkpt>
      <trkpt lat="51.613795" lon="7.649045">
        <ele>57.299784</ele>
        <time>2026-09-01T08:53:37.185Z</time>
      </trkpt>
      <trkpt lat="51.613704" lon="7.648887">
        <ele>56.998528</ele>
        <time>2026-09-01T08:53:39.411Z</time>
      </trkpt>
      <trkpt lat="51.613124" lon="7.647859">
        <ele>54.975030</ele>
        <time>2026-09-01T08:53:53.820Z</time>
      </trkpt>
      <trkpt lat="51.612891" lon="7.647144">
        <ele>53.798652</ele>
        <time>2026-09-01T08:54:02.213Z</time>
      </trkpt>
      <trkpt lat="51.612811" lon="7.647033">
        <ele>53.550906</ele>
        <time>2026-09-01T08:54:04.040Z</time>
      </trkpt>
      <trkpt lat="51.612532" lon="7.646813">
        <ele>52.935977</ele>
        <time>2026-09-01T08:54:09.630Z</time>
      </trkpt>
      <trkpt lat="51.612263" lon="7.646660">
        <ele>53.176837</ele>
        <time>2026-09-01T08:54:15.182Z</time>
      </trkpt>
      <trkpt lat="51.612338" lon="7.645871">
        <ele>53.595310</ele>
        <time>2026-09-01T08:54:26.315Z</time>
      </trkpt>
      <trkpt lat="51.612321" lon="7.645503">
        <ele>53.788777</ele>
        <time>2026-09-01T08:54:32.280Z</time>
      </trkpt>
      <trkpt lat="51.612373" lon="7.645454">
        <ele>53.839644</ele>
        <time>2026-09-01T08:54:33.978Z</time>
      </trkpt>
      <trkpt lat="51.612386" lon="7.645313">
        <ele>53.914377</ele>
        <time>2026-09-01T08:54:36.483Z</time>
      </trkpt>
      <trkpt lat="51.613026" lon="7.644864">
        <ele>54.711946</ele>
        <time>2026-09-01T08:54:59.193Z</time>
      </trkpt>
      <trkpt lat="51.613665" lon="7.644431">
        <ele>56.832375</ele>
        <time>2026-09-01T08:55:23.853Z</time>
      </trkpt>
      <trkpt lat="51.614388" lon="7.643955">
        <ele>59.221411</ele>
        <time>2026-09-01T08:55:51.497Z</time>
      </trkpt>
      <trkpt lat="51.614632" lon="7.643781">
        <ele>59.925741</ele>
        <time>2026-09-01T08:56:00.533Z</time>
      </trkpt>
      <trkpt lat="51.615321" lon="7.643326">
        <ele>59.925741</ele>
        <time>2026-09-01T08:56:24.858Z</time>
      </trkpt>
      <trkpt lat="51.615734" lon="7.643051">
        <ele>59.925741</ele>
        <time>2026-09-01T08:56:38.214Z</time>
      </trkpt>
      <trkpt lat="51.615770" lon="7.643129">
        <ele>59.925741</ele>
        <time>2026-09-01T08:56:39.903Z</time>
      </trkpt>
      <trkpt lat="51.615827" lon="7.643162">
        <ele>59.925741</ele>
        <time>2026-09-01T08:56:41.587Z</time>
      </trkpt>
      <trkpt lat="51.615884" lon="7.643140">
        <ele>59.925741</ele>
        <time>2026-09-01T08:56:43.178Z</time>
      </trkpt>
      <trkpt lat="51.615924" lon="7.643073">
        <ele>59.925741</ele>
        <time>2026-09-01T08:56:44.807Z</time>
      </trkpt>
      <trkpt lat="51.615928" lon="7.642927">
        <ele>59.925741</ele>
        <time>2026-09-01T08:56:47.264Z</time>
      </trkpt>
      <trkpt lat="51.616007" lon="7.642862">
        <ele>59.925741</ele>
        <time>2026-09-01T08:56:49.709Z</time>
      </trkpt>
      <trkpt lat="51.616197" lon="7.642729">
        <ele>59.925741</ele>
        <time>2026-09-01T08:56:55.216Z</time>
      </trkpt>
      <trkpt lat="51.616261" lon="7.643098">
        <ele>59.925741</ele>
        <time>2026-09-01T08:57:01.460Z</time>
      </trkpt>
      <trkpt lat="51.616301" lon="7.643330">
        <ele>59.925741</ele>
        <time>2026-09-01T08:57:05.243Z</time>
      </trkpt>
      <trkpt lat="51.616344" lon="7.643589">
        <ele>59.925741</ele>
        <time>2026-09-01T08:57:09.377Z</time>
      </trkpt>
      <trkpt lat="51.616362" lon="7.643695">
        <ele>59.925741</ele>
        <time>2026-09-01T08:57:11.016Z</time>
      </trkpt>
      <trkpt lat="51.616386" lon="7.643838">
        <ele>59.925741</ele>
        <time>2026-09-01T08:57:13.216Z</time>
      </trkpt>
    </trkseg>
  </trk>
</gpx>